Time;durP1;ratioP1;P1;durP2;ratioP2;P2;SDS_P1;SDS_P2;PMS_P1;PMS_P2;Temp;Humidity;BMP_temperature;BMP_pressure;BME280_temperature;BME280_humidity;BME280_pressure;Samples;Min_cycle;Max_cycle;Signal;HPM_P1;HPM_P2
2021/09/30 00:01:11;;;;;;;1.95;0.63;;;;;;;10.28;67.67;98226.13;5010004;28;20037;-82
2021/09/30 00:03:36;;;;;;;2.47;0.73;;;;;;;10.40;67.69;98218.44;4975706;28;20037;-82
2021/09/30 00:06:02;;;;;;;2.58;0.70;;;;;;;10.47;67.38;98224.38;5009132;28;20409;-81
2021/09/30 00:08:27;;;;;;;1.25;0.55;;;;;;;10.49;67.32;98217.16;4975944;28;20041;-81
2021/09/30 00:11:13;;;;;;;1.25;0.70;;;;;;;10.54;67.52;98225.09;4992119;28;20030;-81
2021/09/30 00:13:57;;;;;;;1.95;0.63;;;;;;;10.59;67.11;98230.44;4994841;28;20394;-82
2021/09/30 00:35:22;;;;;;;2.15;1.00;;;;;;;10.41;67.00;98251.28;5008409;28;20105;-82
2021/09/30 00:45:51;;;;;;;0.82;0.50;;;;;;;10.43;66.60;98255.25;5008251;28;20061;-82
2021/09/30 00:53:40;;;;;;;1.77;0.68;;;;;;;10.37;66.63;98261.31;5007621;28;20034;-81
2021/09/30 01:25:33;;;;;;;2.22;0.90;;;;;;;9.68;67.29;98263.06;5006540;28;20022;-81
2021/09/30 01:33:17;;;;;;;1.33;0.82;;;;;;;9.86;67.23;98273.53;4991334;28;20207;-82
2021/09/30 01:46:12;;;;;;;2.47;0.88;;;;;;;9.84;67.75;98279.97;4993855;28;20036;-82
2021/09/30 02:27:12;;;;;;;2.80;2.08;;;;;;;9.83;67.33;98284.38;4979713;28;20481;-82
2021/09/30 02:39:00;;;;;;;2.42;1.70;;;;;;;9.80;67.10;98279.63;5011317;28;20406;-82
2021/09/30 02:59:54;;;;;;;3.85;2.75;;;;;;;10.10;67.46;98307.59;5010384;28;20044;-82
2021/09/30 03:02:20;;;;;;;5.55;2.47;;;;;;;10.14;67.70;98311.34;4977530;28;20253;-82
2021/09/30 03:04:46;;;;;;;3.85;2.60;;;;;;;10.20;67.66;98312.31;4994379;28;20299;-83
2021/09/30 03:07:11;;;;;;;4.15;2.72;;;;;;;10.27;67.05;98311.25;4993822;28;20040;-82
2021/09/30 03:09:48;;;;;;;4.70;2.72;;;;;;;10.27;67.31;98313.06;4977654;28;20490;-82
2021/09/30 03:12:28;;;;;;;3.95;2.90;;;;;;;10.17;67.39;98305.72;5009065;28;20022;-82
2021/09/30 03:15:03;;;;;;;4.00;3.05;;;;;;;10.17;67.41;98308.31;4995758;28;20114;-83
2021/09/30 03:17:42;;;;;;;;;;;;;;;9.89;68.39;98312.16;4994836;28;20465;-82
2021/09/30 03:20:27;;;;;;;4.25;3.00;;;;;;;10.25;67.63;98308.06;4978865;28;19967;-82
2021/09/30 03:22:56;;;;;;;5.05;3.17;;;;;;;10.30;67.55;98318.63;5009525;28;20522;-82
2021/09/30 03:25:21;;;;;;;7.10;3.60;;;;;;;10.40;67.30;98310.38;5009978;28;20038;-82
2021/09/30 03:27:47;;;;;;;6.10;3.95;;;;;;;10.43;67.24;98314.34;4993261;28;20444;-82
2021/09/30 03:30:12;;;;;;;4.60;4.10;;;;;;;10.46;67.47;98319.91;4977191;28;20029;-82
2021/09/30 03:32:38;;;;;;;6.13;4.65;;;;;;;10.43;67.20;98314.34;4993059;28;20111;-82
2021/09/30 03:35:04;;;;;;;6.13;4.38;;;;;;;10.47;67.40;98318.13;5009712;28;20111;-82
2021/09/30 03:37:29;;;;;;;6.93;5.32;;;;;;;10.51;67.20;98323.69;4977474;28;20026;-82
2021/09/30 03:39:55;;;;;;;7.25;4.57;;;;;;;10.50;67.19;98315.06;4977350;28;20040;-82
2021/09/30 03:42:21;;;;;;;8.15;5.07;;;;;;;10.47;67.54;98308.50;4992967;28;20057;-82
2021/09/30 03:44:46;;;;;;;6.95;5.13;;;;;;;10.46;67.48;98304.28;5009446;28;20041;-82
2021/09/30 03:47:13;;;;;;;8.02;5.18;;;;;;;10.54;67.10;98318.03;5010000;28;20103;-82
2021/09/30 03:49:39;;;;;;;6.30;4.82;;;;;;;10.54;67.17;98313.63;4993326;28;20037;-82
2021/09/30 03:54:52;;;;;;;8.63;5.03;;;;;;;10.44;67.71;98300.31;5025914;28;20022;-82
2021/09/30 03:59:45;;;;;;;6.78;4.53;;;;;;;10.55;67.40;98304.00;5009449;28;20030;-83
2021/09/30 04:02:11;;;;;;;5.47;4.43;;;;;;;10.57;67.07;98297.56;5008861;28;20036;-82
2021/09/30 04:04:36;;;;;;;8.23;4.97;;;;;;;10.54;66.97;98294.59;4992976;28;20033;-83
2021/09/30 04:07:06;;;;;;;7.97;4.93;;;;;;;10.46;67.34;98311.31;4992784;28;20032;-82
2021/09/30 04:09:36;;;;;;;6.55;4.70;;;;;;;10.45;67.29;98309.69;5009652;28;20053;-82
2021/09/30 04:12:05;;;;;;;6.03;4.47;;;;;;;10.41;67.14;98304.13;5008644;28;20428;-82
2021/09/30 04:14:30;;;;;;;5.88;4.78;;;;;;;10.48;67.19;98299.66;4992787;28;20041;-82
2021/09/30 04:16:56;;;;;;;6.00;4.45;;;;;;;10.55;67.21;98304.78;5009171;28;20038;-82
2021/09/30 04:19:22;;;;;;;7.05;4.75;;;;;;;10.55;67.09;98307.41;4992563;28;20029;-81
2021/09/30 04:21:48;;;;;;;7.15;5.53;;;;;;;10.53;66.96;98316.47;4991058;28;20420;-82
2021/09/30 04:24:15;;;;;;;7.18;4.78;;;;;;;10.57;66.96;98320.22;5007715;28;20482;-82
2021/09/30 04:26:41;;;;;;;6.15;4.53;;;;;;;10.58;67.07;98320.00;4976435;28;20080;-82
2021/09/30 04:29:06;;;;;;;5.60;4.18;;;;;;;10.61;67.04;98316.97;5009953;28;20065;-82
2021/09/30 04:31:32;;;;;;;7.85;5.07;;;;;;;10.52;67.18;98320.88;5008248;28;20026;-82
2021/09/30 04:33:57;;;;;;;6.30;5.18;;;;;;;10.55;67.01;98325.63;5008790;28;20126;-82
2021/09/30 04:36:23;;;;;;;5.90;4.32;;;;;;;10.55;66.89;98328.22;5008631;28;20538;-82
2021/09/30 04:38:49;;;;;;;6.68;3.88;;;;;;;10.53;67.03;98326.88;5008565;28;20115;-82
2021/09/30 04:41:16;;;;;;;6.15;4.70;;;;;;;10.55;66.89;98340.47;4975749;28;20026;-82
2021/09/30 04:43:41;;;;;;;6.38;4.68;;;;;;;10.55;66.87;98338.66;5007978;28;20038;-82
2021/09/30 04:46:06;;;;;;;5.90;4.47;;;;;;;10.49;67.03;98336.94;4953058;28;20052;-82
2021/09/30 04:48:32;;;;;;;6.43;4.40;;;;;;;10.45;66.77;98335.75;4968900;28;20036;-82
2021/09/30 04:50:57;;;;;;;6.45;4.32;;;;;;;10.44;66.90;98337.56;4990680;28;20038;-82
2021/09/30 04:53:23;;;;;;;6.65;4.32;;;;;;;10.35;67.39;98336.25;4972276;28;20060;-82
2021/09/30 04:55:48;;;;;;;7.32;4.82;;;;;;;10.32;67.14;98336.66;5003704;28;20501;-82
2021/09/30 04:58:13;;;;;;;5.80;4.18;;;;;;;10.32;66.97;98336.66;4956401;28;20085;-83
2021/09/30 05:00:39;;;;;;;5.30;3.65;;;;;;;10.19;67.18;98337.53;4971481;28;20537;-82
2021/09/30 05:03:05;;;;;;;5.38;3.67;;;;;;;10.15;67.41;98331.16;4954859;28;20039;-82
2021/09/30 05:05:30;;;;;;;7.07;3.60;;;;;;;10.12;67.21;98326.38;4971308;28;20397;-82
2021/09/30 05:07:55;;;;;;;4.47;3.25;;;;;;;10.06;66.77;98330.63;4955128;28;20026;-82
2021/09/30 05:10:22;;;;;;;5.05;3.83;;;;;;;10.00;66.94;98323.66;4987674;28;20157;-82
2021/09/30 05:12:49;;;;;;;4.45;3.20;;;;;;;9.91;67.08;98330.94;4971163;28;20030;-82
2021/09/30 05:15:14;;;;;;;3.17;2.72;;;;;;;9.90;67.05;98339.78;4955759;28;20057;-82
2021/09/30 05:17:40;;;;;;;6.60;3.15;;;;;;;9.76;66.98;98335.66;4971364;28;20034;-82
2021/09/30 05:20:06;;;;;;;3.97;2.75;;;;;;;9.78;66.98;98343.25;4956705;28;20034;-82
2021/09/30 05:22:31;;;;;;;3.88;2.58;;;;;;;9.86;66.89;98354.19;4997626;28;20030;-82
2021/09/30 05:24:57;;;;;;;3.95;2.78;;;;;;;9.79;66.83;98353.44;5006633;28;20026;-82
2021/09/30 05:27:22;;;;;;;4.97;3.28;;;;;;;9.82;67.02;98360.81;4990852;28;20120;-82
2021/09/30 05:29:47;;;;;;;5.68;3.65;;;;;;;9.81;66.88;98356.63;4990375;28;20030;-82
2021/09/30 05:32:13;;;;;;;5.00;3.42;;;;;;;9.82;67.00;98354.81;4985102;28;20036;-82
2021/09/30 05:34:38;;;;;;;4.55;3.42;;;;;;;9.83;66.97;98354.59;4981318;28;20504;-82
2021/09/30 05:37:04;;;;;;;4.43;3.25;;;;;;;9.83;67.08;98359.81;4985279;28;20034;-82
2021/09/30 05:39:29;;;;;;;5.40;3.33;;;;;;;9.83;66.86;98357.19;4972161;28;20462;-82
2021/09/30 05:41:56;;;;;;;5.82;2.88;;;;;;;9.79;67.60;98356.03;4987918;28;20457;-82
2021/09/30 05:44:24;;;;;;;5.65;3.20;;;;;;;9.81;67.18;98351.41;4988168;28;20061;-82
2021/09/30 05:46:54;;;;;;;4.78;3.00;;;;;;;9.83;67.31;98359.81;4987897;28;20035;-82
2021/09/30 05:49:21;;;;;;;7.18;3.30;;;;;;;9.85;67.29;98354.41;4972424;28;20077;-82
2021/09/30 05:51:47;;;;;;;4.65;3.30;;;;;;;9.86;67.56;98359.38;4970956;28;20023;-81
2021/09/30 05:54:12;;;;;;;6.55;4.00;;;;;;;9.89;67.91;98364.19;4955972;28;20031;-82
2021/09/30 05:56:38;;;;;;;7.00;3.63;;;;;;;9.98;67.95;98361.31;4987753;28;20486;-82
2021/09/30 05:59:04;;;;;;;6.68;4.47;;;;;;;10.05;67.52;98359.47;4989249;28;20046;-82
2021/09/30 06:02:27;;;;;;;6.60;3.85;;;;;;;10.03;67.95;98358.91;4955350;28;20022;-82
2021/09/30 06:12:37;;;;;;;9.25;4.25;;;;;;;10.29;67.38;98365.69;4987467;28;20026;-82
2021/09/30 06:15:12;;;;;;;7.93;4.10;;;;;;;10.29;67.17;98366.47;4987522;28;20030;-82
2021/09/30 06:17:38;;;;;;;7.75;5.22;;;;;;;10.35;67.09;98359.69;4987686;28;20509;-82
2021/09/30 06:20:05;;;;;;;6.80;4.22;;;;;;;10.41;67.46;98369.22;4971002;28;20460;-82
2021/09/30 06:22:30;;;;;;;7.47;4.70;;;;;;;10.41;67.25;98365.84;4971382;28;20070;-82
2021/09/30 06:24:55;;;;;;;6.60;5.07;;;;;;;10.45;67.54;98366.97;4954804;28;20030;-82
2021/09/30 06:27:21;;;;;;;8.43;4.63;;;;;;;10.51;67.63;98376.56;5008483;28;20050;-82
2021/09/30 06:29:46;;;;;;;6.93;5.05;;;;;;;10.53;67.14;98371.94;5007408;28;20034;-82
2021/09/30 06:32:11;;;;;;;9.35;5.43;;;;;;;10.53;67.28;98371.13;4974310;28;20081;-82
2021/09/30 06:34:38;;;;;;;7.80;5.38;;;;;;;10.62;67.03;98375.84;5006915;28;20037;-82
2021/09/30 06:37:03;;;;;;;9.65;5.07;;;;;;;10.69;66.93;98378.38;4990790;28;20547;-81
2021/09/30 06:39:28;;;;;;;7.00;4.85;;;;;;;10.72;67.25;98382.38;4974890;28;20126;-82
2021/09/30 06:41:54;;;;;;;8.52;5.45;;;;;;;10.72;67.31;98383.16;5006573;28;20107;-82
2021/09/30 06:44:19;;;;;;;9.00;4.68;;;;;;;10.79;66.89;98389.09;4990852;28;20406;-82
2021/09/30 06:46:44;;;;;;;6.43;4.68;;;;;;;10.82;66.70;98385.28;4991978;28;20041;-81
2021/09/30 06:49:10;;;;;;;6.13;4.43;;;;;;;10.83;66.34;98384.25;4994431;28;20030;-82
2021/09/30 06:51:35;;;;;;;6.25;4.40;;;;;;;10.84;66.86;98386.66;4993935;28;20030;-81
2021/09/30 06:54:01;;;;;;;6.38;4.53;;;;;;;10.87;66.42;98382.84;4994303;28;20461;-82
2021/09/30 06:56:28;;;;;;;6.10;3.88;;;;;;;10.87;66.58;98375.03;4994337;28;20038;-82
2021/09/30 06:58:54;;;;;;;5.78;4.22;;;;;;;10.95;66.32;98385.16;4987239;28;20532;-82
2021/09/30 07:01:21;;;;;;;6.45;4.43;;;;;;;10.85;66.37;98398.69;4978112;28;20437;-82
2021/09/30 07:03:49;;;;;;;7.50;4.03;;;;;;;10.97;66.05;98392.78;4990691;28;20030;-81
2021/09/30 07:06:14;;;;;;;6.28;4.40;;;;;;;11.05;66.22;98398.50;4975065;28;20409;-81
2021/09/30 07:08:40;;;;;;;7.75;4.97;;;;;;;11.03;66.91;98397.09;4991209;28;20038;-81
2021/09/30 07:11:06;;;;;;;7.03;5.20;;;;;;;11.17;66.47;98411.59;4974302;28;20032;-82
2021/09/30 07:13:31;;;;;;;8.25;4.75;;;;;;;11.16;66.35;98410.00;4974624;28;20030;-82
2021/09/30 07:15:57;;;;;;;9.43;5.47;;;;;;;11.28;66.47;98412.69;4990582;28;20541;-82
2021/09/30 07:18:22;;;;;;;6.95;5.55;;;;;;;11.42;65.96;98403.66;4974670;28;20041;-81
2021/09/30 07:20:53;;;;;;;7.80;5.05;;;;;;;11.40;65.90;98395.28;4957687;28;20026;-82
2021/09/30 07:23:20;;;;;;;6.95;4.75;;;;;;;11.73;65.49;98401.88;4942078;28;20081;-82
2021/09/30 07:25:45;;;;;;;7.80;4.90;;;;;;;11.91;64.54;98398.47;4989240;28;20375;-82
2021/09/30 07:28:11;;;;;;;6.85;4.80;;;;;;;12.03;64.78;98393.28;5010068;28;20119;-82
2021/09/30 07:30:36;;;;;;;6.25;4.40;;;;;;;12.23;64.54;98398.19;4993976;28;20037;-81
2021/09/30 07:33:02;;;;;;;10.05;4.10;;;;;;;12.35;63.53;98393.00;4977293;28;20029;-82
2021/09/30 07:35:28;;;;;;;6.88;4.68;;;;;;;12.49;63.87;98394.38;4984833;28;20062;-81
2021/09/30 07:37:55;;;;;;;5.63;3.60;;;;;;;12.67;62.87;98397.91;5011483;28;20068;-82
2021/09/30 07:40:22;;;;;;;5.57;3.55;;;;;;;12.73;62.68;98399.59;5010088;28;20034;-82
2021/09/30 07:42:47;;;;;;;7.32;3.40;;;;;;;12.92;62.71;98397.69;4985011;28;20029;-81
2021/09/30 07:45:13;;;;;;;6.65;3.70;;;;;;;13.05;62.37;98394.00;4985530;28;20025;-81
2021/09/30 07:47:38;;;;;;;4.30;3.13;;;;;;;13.05;62.81;98399.25;4982113;28;20030;-81
2021/09/30 07:50:04;;;;;;;3.65;2.65;;;;;;;12.98;62.63;98406.41;4979724;28;20049;-81
2021/09/30 07:52:30;;;;;;;6.47;3.20;;;;;;;13.17;61.95;98401.84;4967425;28;20501;-81
2021/09/30 07:54:56;;;;;;;4.18;2.55;;;;;;;13.21;62.60;98395.94;4968209;28;20017;-81
2021/09/30 07:57:21;;;;;;;3.63;2.03;;;;;;;13.24;62.36;98392.81;4987832;28;20042;-81
2021/09/30 07:59:47;;;;;;;5.03;1.80;;;;;;;13.29;62.23;98405.22;4998034;28;20058;-81
2021/09/30 08:02:12;;;;;;;4.90;2.22;;;;;;;13.30;62.58;98406.81;4965276;28;20498;-81
2021/09/30 08:04:38;;;;;;;6.78;3.47;;;;;;;13.19;62.01;98400.56;4995887;28;20046;-81
2021/09/30 08:07:06;;;;;;;5.47;2.42;;;;;;;13.17;62.54;98404.44;4993604;28;20575;-82
2021/09/30 08:09:32;;;;;;;2.42;1.90;;;;;;;13.20;62.58;98399.56;5017042;28;20124;-81
2021/09/30 08:11:57;;;;;;;6.55;1.98;;;;;;;13.20;62.04;98399.56;5004813;28;20122;-82
2021/09/30 08:14:23;;;;;;;3.17;1.75;;;;;;;13.39;62.21;98399.44;4968365;28;20125;-82
2021/09/30 08:16:49;;;;;;;4.47;1.75;;;;;;;13.46;62.47;98390.41;4981643;28;20030;-81
2021/09/30 08:19:15;;;;;;;4.63;1.77;;;;;;;13.36;62.54;98392.03;5005629;28;20038;-81
2021/09/30 08:21:44;;;;;;;2.67;1.40;;;;;;;13.66;61.57;98384.78;4997887;28;20103;-81
2021/09/30 08:24:11;;;;;;;3.88;1.45;;;;;;;13.91;60.64;98391.47;4994882;28;20030;-81
2021/09/30 08:26:36;;;;;;;3.97;1.33;;;;;;;13.97;60.94;98395.00;4984314;28;20094;-81
2021/09/30 08:29:02;;;;;;;2.63;1.25;;;;;;;14.09;59.67;98402.78;5000650;28;20498;-81
2021/09/30 08:31:27;;;;;;;3.10;2.15;;;;;;;14.13;59.40;98394.19;4975880;28;20080;-81
2021/09/30 08:33:58;;;;;;;3.83;1.42;;;;;;;14.15;59.39;98397.38;4989744;28;20076;-81
2021/09/30 08:36:23;;;;;;;2.63;1.10;;;;;;;14.03;59.61;98394.84;4973768;28;20037;-81
2021/09/30 08:38:49;;;;;;;3.10;1.58;;;;;;;14.20;60.12;98405.31;4978331;28;20038;-81
2021/09/30 08:41:15;;;;;;;3.85;1.73;;;;;;;14.26;60.07;98403.59;4992264;28;20501;-81
2021/09/30 08:43:41;;;;;;;3.83;1.50;;;;;;;14.48;58.54;98402.88;4976483;28;20034;-81
2021/09/30 08:46:06;;;;;;;4.20;1.08;;;;;;;14.50;58.31;98385.09;4976302;28;20600;-81
2021/09/30 08:48:33;;;;;;;1.65;0.90;;;;;;;14.49;58.38;98388.72;4992559;28;20108;-81
2021/09/30 08:50:58;;;;;;;4.50;1.23;;;;;;;14.34;59.33;98395.34;5008225;28;20481;-81
2021/09/30 08:53:24;;;;;;;3.70;1.17;;;;;;;14.49;58.93;98396.59;4976594;28;20018;-81
2021/09/30 08:55:49;;;;;;;2.97;0.98;;;;;;;14.56;58.39;98392.75;5008998;28;20038;-81
2021/09/30 08:58:15;;;;;;;3.53;1.13;;;;;;;14.64;58.29;98390.81;5008850;28;20038;-81
2021/09/30 09:00:45;;;;;;;2.15;1.02;;;;;;;14.72;58.32;98396.44;4992050;28;20069;-81
2021/09/30 09:03:10;;;;;;;1.90;1.10;;;;;;;14.77;58.39;98395.72;4992999;28;20040;-81
2021/09/30 09:05:37;;;;;;;3.42;1.20;;;;;;;14.50;58.71;98387.72;5008720;28;20030;-81
2021/09/30 09:08:05;;;;;;;3.13;1.42;;;;;;;14.55;58.61;98398.28;4976239;28;20041;-81
2021/09/30 09:10:37;;;;;;;2.80;0.98;;;;;;;14.62;57.89;98391.06;4975351;28;20493;-82
2021/09/30 09:13:14;;;;;;;3.47;1.15;;;;;;;14.59;58.10;98394.16;4976233;28;20433;-81
2021/09/30 09:15:54;;;;;;;3.63;1.20;;;;;;;14.54;57.65;98388.81;4992654;28;20040;-82
2021/09/30 09:18:41;;;;;;;4.13;1.48;;;;;;;14.39;59.23;98386.75;4993004;28;20041;-81
2021/09/30 09:21:10;;;;;;;2.40;1.05;;;;;;;14.60;58.81;98386.06;4992579;28;20134;-80
2021/09/30 09:24:00;;;;;;;3.42;1.60;;;;;;;14.61;57.51;98392.09;5008395;28;20123;-81
2021/09/30 09:26:40;;;;;;;3.97;1.83;;;;;;;14.44;58.96;98392.06;5008340;28;20041;-81
2021/09/30 09:29:07;;;;;;;2.85;1.10;;;;;;;14.65;58.27;98401.06;4992910;28;20671;-81
2021/09/30 09:31:35;;;;;;;3.90;1.10;;;;;;;14.58;58.04;98395.16;4975817;28;20033;-81
2021/09/30 09:34:17;;;;;;;4.35;0.88;;;;;;;14.33;58.64;98387.72;4976225;28;20401;-80
2021/09/30 09:36:43;;;;;;;4.30;1.00;;;;;;;14.75;57.68;98389.91;4992318;28;20508;-81
2021/09/30 09:39:08;;;;;;;3.05;0.90;;;;;;;14.91;57.66;98385.69;5008400;28;20485;-81
2021/09/30 09:41:35;;;;;;;4.13;1.27;;;;;;;14.98;57.16;98384.47;4975403;28;20087;-81
2021/09/30 09:44:01;;;;;;;1.95;0.80;;;;;;;15.08;56.57;98383.00;4991923;28;20121;-81
2021/09/30 09:46:31;;;;;;;2.60;0.95;;;;;;;14.87;56.78;98393.22;4991868;28;20177;-81
2021/09/30 09:49:00;;;;;;;2.10;0.93;;;;;;;15.01;57.28;98398.13;4976099;28;20057;-81
2021/09/30 09:51:33;;;;;;;4.45;0.90;;;;;;;14.84;57.55;98393.72;4991240;28;20076;-80
2021/09/30 09:53:59;;;;;;;2.80;0.88;;;;;;;15.27;55.87;98401.88;4991848;28;20033;-81
2021/09/30 09:56:25;;;;;;;2.45;0.90;;;;;;;15.42;55.71;98396.81;5008300;28;20045;-81
2021/09/30 09:58:56;;;;;;;4.53;0.80;;;;;;;15.60;55.15;98397.53;4991845;28;20064;-81
2021/09/30 10:01:24;;;;;;;3.03;1.05;;;;;;;15.94;53.94;98392.91;5007556;28;20037;-81
2021/09/30 10:03:55;;;;;;;3.33;1.00;;;;;;;16.08;53.14;98388.03;4975651;28;20021;-81
2021/09/30 10:06:20;;;;;;;2.65;0.70;;;;;;;16.32;53.31;98392.94;4991743;28;20041;-81
2021/09/30 10:08:46;;;;;;;3.25;1.30;;;;;;;16.18;54.48;98387.31;4991334;28;20026;-80
2021/09/30 10:11:12;;;;;;;2.30;0.95;;;;;;;16.52;54.10;98390.47;5007707;28;20053;-81
2021/09/30 10:13:38;;;;;;;2.17;1.27;;;;;;;16.90;52.17;98383.34;5007793;28;20034;-81
2021/09/30 10:16:04;;;;;;;3.42;0.93;;;;;;;17.10;50.87;98387.94;5009331;28;20130;-82
2021/09/30 10:18:29;;;;;;;3.38;1.10;;;;;;;17.27;51.27;98385.06;4991635;28;20564;-81
2021/09/30 10:20:57;;;;;;;1.67;0.80;;;;;;;17.23;51.38;98387.44;4975190;28;20073;-81
2021/09/30 10:23:27;;;;;;;2.58;0.80;;;;;;;17.24;50.55;98388.25;5011916;28;20132;-81
2021/09/30 10:25:54;;;;;;;5.50;0.80;;;;;;;16.88;51.54;98376.75;4994915;28;20038;-81
2021/09/30 10:28:20;;;;;;;5.22;0.77;;;;;;;16.56;52.48;98378.38;4979400;28;20083;-81
2021/09/30 10:30:48;;;;;;;2.25;1.15;;;;;;;16.44;52.51;98381.19;5011211;28;20541;-81
2021/09/30 10:33:19;;;;;;;2.25;1.80;;;;;;;16.29;53.39;98376.63;5011688;28;20030;-81
2021/09/30 10:35:53;;;;;;;3.58;0.93;;;;;;;16.65;53.40;98368.97;5011691;28;20125;-81
2021/09/30 10:38:25;;;;;;;2.03;0.70;;;;;;;16.96;52.06;98374.41;4995500;28;20120;-80
2021/09/30 10:41:13;;;;;;;2.88;1.05;;;;;;;16.97;51.94;98368.13;5011197;28;20033;-81
2021/09/30 10:43:44;;;;;;;2.85;0.50;;;;;;;17.39;51.93;98376.97;4979324;28;20030;-81
2021/09/30 10:46:21;;;;;;;2.80;0.50;;;;;;;16.94;51.83;98378.38;5011486;28;20038;-81
2021/09/30 10:48:48;;;;;;;2.67;0.70;;;;;;;17.06;51.88;98378.16;4994732;28;20433;-80
2021/09/30 10:51:14;;;;;;;2.55;0.70;;;;;;;16.92;50.32;98370.72;5012147;28;20034;-81
2021/09/30 10:53:59;;;;;;;4.38;0.60;;;;;;;16.42;51.13;98379.88;5011093;28;20539;-81
2021/09/30 10:56:31;;;;;;;1.95;0.63;;;;;;;16.98;51.51;98376.81;5010787;28;20057;-81
2021/09/30 10:59:08;;;;;;;5.38;0.70;;;;;;;16.95;49.85;98369.44;5012894;28;20091;-81
2021/09/30 11:01:46;;;;;;;3.17;0.60;;;;;;;16.95;48.92;98370.22;5011927;28;20078;-81
2021/09/30 11:04:11;;;;;;;2.03;0.60;;;;;;;17.22;49.24;98361.38;5012262;28;20109;-81
2021/09/30 11:06:37;;;;;;;3.38;0.85;;;;;;;17.22;50.37;98367.44;5010994;28;20597;-81
2021/09/30 11:09:21;;;;;;;4.28;0.70;;;;;;;16.88;49.18;98366.22;5011044;28;20145;-81
2021/09/30 11:11:49;;;;;;;1.60;0.52;;;;;;;17.00;51.03;98372.88;5010634;28;20101;-81
2021/09/30 11:14:17;;;;;;;2.70;0.60;;;;;;;16.95;49.69;98367.59;4978757;28;20022;-81
2021/09/30 11:16:46;;;;;;;2.63;0.50;;;;;;;17.27;48.69;98366.66;5010715;28;20080;-81
2021/09/30 11:19:34;;;;;;;2.88;0.63;;;;;;;17.03;50.35;98368.94;5010953;28;20030;-81
2021/09/30 11:22:05;;;;;;;2.33;0.60;;;;;;;17.77;49.80;98365.22;4994109;28;20105;-81
2021/09/30 11:24:38;;;;;;;4.07;0.85;;;;;;;18.98;45.60;98357.72;4978493;28;20452;-81
2021/09/30 11:27:08;;;;;;;2.33;0.93;;;;;;;20.05;42.24;98345.78;5011724;28;20034;-80
2021/09/30 11:29:34;;;;;;;3.53;0.80;;;;;;;20.85;39.16;98352.41;5010452;28;20443;-82
2021/09/30 11:32:01;;;;;;;4.00;1.58;;;;;;;20.66;39.61;98352.34;4977072;28;20393;-82
2021/09/30 11:34:46;;;;;;;3.15;1.50;;;;;;;19.83;40.55;98351.50;5010360;28;20064;-81
2021/09/30 11:37:20;;;;;;;2.28;0.70;;;;;;;20.12;39.31;98346.25;5012327;28;20030;-81
2021/09/30 11:39:49;;;;;;;1.60;0.60;;;;;;;20.36;41.27;98337.56;4994262;28;20042;-82
2021/09/30 11:42:19;;;;;;;2.67;0.80;;;;;;;20.84;39.47;98337.59;4977443;28;20026;-82
2021/09/30 11:45:00;;;;;;;2.50;0.70;;;;;;;20.72;37.91;98324.00;4994281;28;20041;-81
2021/09/30 11:47:27;;;;;;;2.80;0.50;;;;;;;20.44;38.80;98320.28;5010354;28;20033;-82
2021/09/30 11:49:53;;;;;;;2.40;0.70;;;;;;;19.79;41.31;98326.66;5011216;28;20269;-82
2021/09/30 11:52:18;;;;;;;1.58;0.60;;;;;;;19.10;41.20;98329.16;4993516;28;20322;-82
2021/09/30 11:54:44;;;;;;;1.40;0.85;;;;;;;18.68;41.93;98311.91;4993863;28;20065;-81
2021/09/30 11:57:19;;;;;;;1.17;0.50;;;;;;;18.55;42.49;98318.53;4993368;28;20137;-82
2021/09/30 11:59:45;;;;;;;4.25;0.88;;;;;;;19.16;42.53;98306.97;4993938;28;20397;-81
2021/09/30 12:02:12;;;;;;;2.50;1.00;;;;;;;19.55;41.79;98303.56;5009308;28;20037;-81
2021/09/30 12:04:42;;;;;;;3.85;0.90;;;;;;;19.70;41.50;98299.22;4994358;28;20032;-82
2021/09/30 12:07:20;;;;;;;2.15;0.85;;;;;;;19.07;41.95;98292.75;4993836;28;20038;-82
2021/09/30 12:09:47;;;;;;;1.67;0.65;;;;;;;18.94;43.13;98296.00;4993823;28;20512;-81
2021/09/30 12:12:13;;;;;;;1.85;0.68;;;;;;;18.64;43.92;98289.75;4993081;28;20085;-81
2021/09/30 12:14:42;;;;;;;2.60;0.57;;;;;;;17.95;47.53;98289.34;4993268;28;20026;-82
2021/09/30 12:17:12;;;;;;;0.90;0.40;;;;;;;18.07;45.37;98286.44;5010090;28;20030;-82
2021/09/30 12:19:46;;;;;;;2.58;0.52;;;;;;;18.32;43.75;98278.50;4993891;28;20433;-81
2021/09/30 12:22:24;;;;;;;1.73;0.50;;;;;;;18.68;43.35;98275.75;5009583;28;20030;-81
2021/09/30 12:24:59;;;;;;;1.60;0.50;;;;;;;18.73;42.70;98274.94;4992965;28;20030;-81
2021/09/30 12:27:30;;;;;;;0.70;0.35;;;;;;;18.96;40.82;98270.91;4977192;28;20057;-82
2021/09/30 12:30:12;;;;;;;2.67;0.50;;;;;;;18.75;40.71;98267.53;5009301;28;20061;-82
2021/09/30 12:32:40;;;;;;;2.20;0.40;;;;;;;18.81;40.65;98273.59;4976889;28;20474;-81
2021/09/30 12:35:15;;;;;;;1.08;0.55;;;;;;;18.64;40.32;98260.72;4993315;28;20034;-81
2021/09/30 12:37:46;;;;;;;0.50;0.50;;;;;;;18.36;41.57;98268.19;4977338;28;20055;-81
2021/09/30 12:40:14;;;;;;;2.20;0.50;;;;;;;18.36;41.17;98262.16;5009726;28;20041;-81
2021/09/30 12:42:49;;;;;;;2.28;0.77;;;;;;;18.26;43.44;98258.47;5009088;28;20029;-81
2021/09/30 12:45:16;;;;;;;1.13;0.40;;;;;;;18.10;42.01;98252.44;4992007;28;20045;-81
2021/09/30 12:47:42;;;;;;;1.13;0.40;;;;;;;18.15;42.24;98247.16;4977047;28;20029;-81
2021/09/30 12:50:11;;;;;;;2.83;0.40;;;;;;;17.95;43.32;98247.19;5008993;28;20037;-81
2021/09/30 12:52:38;;;;;;;2.22;0.50;;;;;;;17.99;42.17;98250.09;5009998;28;20030;-81
2021/09/30 12:55:23;;;;;;;1.48;0.47;;;;;;;17.62;42.48;98244.03;4992983;28;20061;-81
2021/09/30 12:57:49;;;;;;;1.55;0.40;;;;;;;17.91;43.15;98240.88;5007944;28;20053;-82
2021/09/30 13:00:17;;;;;;;1.95;0.32;;;;;;;17.83;43.12;98244.03;4992250;28;20037;-81
2021/09/30 13:02:44;;;;;;;1.27;1.02;;;;;;;17.91;44.41;98235.63;4976396;28;20509;-81
2021/09/30 13:05:10;;;;;;;0.50;0.40;;;;;;;18.05;44.57;98230.59;4992497;28;20034;-81
2021/09/30 13:07:49;;;;;;;1.55;0.88;;;;;;;17.90;40.53;98229.53;4992991;28;20417;-82
2021/09/30 13:10:17;;;;;;;1.17;0.47;;;;;;;17.86;42.76;98225.06;5008628;28;20501;-81
2021/09/30 13:12:59;;;;;;;2.50;0.47;;;;;;;17.70;45.17;98226.91;5010376;28;20083;-81
2021/09/30 13:15:36;;;;;;;2.72;0.75;;;;;;;17.77;44.30;98222.16;5009447;28;20034;-81
2021/09/30 13:18:02;;;;;;;3.15;0.70;;;;;;;18.05;43.25;98226.09;4992335;28;20040;-81
2021/09/30 13:20:28;;;;;;;2.47;0.55;;;;;;;18.06;44.83;98225.06;5008490;28;20029;-81
2021/09/30 13:22:53;;;;;;;2.83;0.47;;;;;;;18.07;43.63;98231.88;5008424;28;20177;-81
2021/09/30 13:25:20;;;;;;;1.83;0.50;;;;;;;18.01;43.43;98232.97;5008335;28;20022;-81
2021/09/30 13:27:49;;;;;;;1.40;0.50;;;;;;;17.86;42.65;98230.31;5009726;28;20061;-81
2021/09/30 13:30:24;;;;;;;0.70;0.20;;;;;;;17.98;44.70;98228.22;5007941;28;20034;-81
2021/09/30 13:32:50;;;;;;;2.80;0.50;;;;;;;18.04;44.47;98226.34;4991798;28;20032;-81
2021/09/30 13:35:17;;;;;;;0.95;0.60;;;;;;;18.06;43.23;98226.88;5008655;28;20034;-82
2021/09/30 13:37:43;;;;;;;1.33;0.40;;;;;;;18.03;41.62;98215.03;4992215;28;20309;-81
2021/09/30 13:40:09;;;;;;;1.05;0.30;;;;;;;17.97;41.53;98216.09;4992397;28;20445;-81
2021/09/30 13:42:37;;;;;;;1.40;0.50;;;;;;;18.12;42.29;98210.78;4992315;28;20039;-81
2021/09/30 13:45:08;;;;;;;1.80;0.40;;;;;;;17.82;42.68;98203.72;5007986;28;20033;-82
2021/09/30 13:47:34;;;;;;;1.00;0.40;;;;;;;18.17;42.33;98206.56;4976345;28;20045;-81
2021/09/30 13:49:59;;;;;;;0.70;0.55;;;;;;;18.24;41.63;98207.06;4975258;28;20072;-81
2021/09/30 13:52:25;;;;;;;0.57;0.30;;;;;;;18.20;43.36;98200.75;5007738;28;20046;-81
2021/09/30 13:54:51;;;;;;;2.38;0.47;;;;;;;18.09;42.78;98192.88;5008650;28;20117;-81
2021/09/30 13:57:16;;;;;;;2.03;0.47;;;;;;;17.99;44.84;98194.75;5012125;28;20090;-81
2021/09/30 13:59:43;;;;;;;0.60;0.57;;;;;;;17.93;44.79;98192.13;4996197;28;20087;-81
2021/09/30 14:02:08;;;;;;;1.40;0.32;;;;;;;17.80;46.39;98187.38;5011588;28;20381;-81
2021/09/30 14:04:35;;;;;;;1.85;0.57;;;;;;;17.53;46.87;98183.19;5012143;28;20072;-81
2021/09/30 14:07:02;;;;;;;1.23;0.52;;;;;;;17.42;47.79;98187.66;4995564;28;20033;-81
2021/09/30 14:09:28;;;;;;;2.75;0.60;;;;;;;17.45;45.20;98186.38;4995629;28;20069;-82
2021/09/30 14:11:53;;;;;;;1.50;0.38;;;;;;;17.48;44.22;98179.75;5011633;28;20065;-81
2021/09/30 14:14:20;;;;;;;0.88;0.30;;;;;;;17.49;46.45;98174.25;4983626;28;20084;-81
2021/09/30 14:16:49;;;;;;;1.90;0.52;;;;;;;17.39;47.58;98172.41;4994919;28;20030;-81